createdAt,value
2023-04-12T00:01:19.449Z,1.63
2023-04-12T00:06:20.872Z,2.90
2023-04-12T00:11:22.257Z,1.57
2023-04-12T00:16:23.690Z,1.50
2023-04-12T00:21:25.121Z,1.60
2023-04-12T00:26:26.559Z,2.20
2023-04-12T00:31:28.059Z,1.50
2023-04-12T00:36:29.547Z,1.63
2023-04-12T00:41:30.965Z,1.40
2023-04-12T00:46:32.407Z,1.30
2023-04-12T00:51:33.892Z,1.80
2023-04-12T00:56:35.304Z,2.57
2023-04-12T01:01:36.763Z,3.53
2023-04-12T01:06:38.181Z,2.40
2023-04-12T01:11:39.570Z,1.70
2023-04-12T01:16:41.225Z,1.70
2023-04-12T01:21:42.674Z,1.30
2023-04-12T01:26:44.050Z,1.50
2023-04-12T01:31:45.473Z,1.17
2023-04-12T01:36:46.987Z,2.03
2023-04-12T01:41:48.407Z,2.40
2023-04-12T01:46:49.820Z,1.67
2023-04-12T01:51:51.215Z,2.50
2023-04-12T01:56:52.616Z,1.37
2023-04-12T02:01:54.100Z,1.40
2023-04-12T02:06:55.587Z,1.60
2023-04-12T02:11:56.984Z,2.63
2023-04-12T02:16:58.560Z,1.50
2023-04-12T02:22:00.089Z,1.53
2023-04-12T02:27:01.559Z,1.20
2023-04-12T02:32:02.984Z,1.40
2023-04-12T02:37:04.414Z,1.87
2023-04-12T02:42:05.817Z,1.40
2023-04-12T02:47:07.204Z,1.87
2023-04-12T02:52:08.617Z,1.37
2023-04-12T02:57:10.036Z,1.47
2023-04-12T03:02:11.537Z,1.43
2023-04-12T03:07:12.974Z,1.40
2023-04-12T03:12:14.365Z,1.20
2023-04-12T03:17:15.777Z,1.50
2023-04-12T03:22:17.205Z,1.40
2023-04-12T03:27:18.621Z,1.70
2023-04-12T03:32:20.027Z,1.40
2023-04-12T03:37:21.559Z,1.20
2023-04-12T03:42:32.366Z,1.40
2023-04-12T03:47:34.782Z,1.10
2023-04-12T03:52:36.229Z,1.33
2023-04-12T03:57:37.640Z,1.97
2023-04-12T04:02:39.149Z,1.50
2023-04-12T04:07:40.599Z,1.23
2023-04-12T04:12:42.001Z,1.30
2023-04-12T04:17:43.439Z,1.20
2023-04-12T04:22:44.853Z,1.30
2023-04-12T04:27:46.239Z,2.00
2023-04-12T04:32:47.679Z,1.30
2023-04-12T04:37:49.241Z,1.57
2023-04-12T04:42:50.640Z,1.40
2023-04-12T04:47:52.057Z,1.40
2023-04-12T04:52:53.471Z,1.20
2023-04-12T04:57:54.862Z,1.20
2023-04-12T05:02:56.412Z,1.30
2023-04-12T05:07:57.876Z,1.20
2023-04-12T05:12:59.285Z,1.20
2023-04-12T05:18:00.749Z,1.10
2023-04-12T05:23:02.177Z,1.60
2023-04-12T05:28:03.578Z,1.33
2023-04-12T05:33:05.022Z,1.77
2023-04-12T05:38:06.441Z,1.87
2023-04-12T05:43:07.828Z,1.30
2023-04-12T05:48:09.278Z,1.33
2023-04-12T05:53:10.712Z,1.30
2023-04-12T05:58:12.118Z,1.53
2023-04-12T06:03:13.583Z,1.03
2023-04-12T06:08:15.062Z,1.43
2023-04-12T06:13:16.465Z,1.10
2023-04-12T06:18:17.865Z,1.27
2023-04-12T06:23:19.255Z,1.10
2023-04-12T06:28:21.695Z,1.33
2023-04-12T06:33:23.081Z,1.87
2023-04-12T06:38:24.461Z,3.10
2023-04-12T06:43:25.854Z,2.07
2023-04-12T06:48:27.258Z,1.20
2023-04-12T06:53:28.652Z,1.30
2023-04-12T06:58:30.046Z,1.53
2023-04-12T07:03:31.517Z,1.50
2023-04-12T07:08:33.029Z,1.30
2023-04-12T07:13:34.430Z,0.90
2023-04-12T07:18:35.829Z,1.00
2023-04-12T07:23:37.237Z,1.00
2023-04-12T07:28:38.645Z,1.57
2023-04-12T07:33:42.761Z,1.10
2023-04-12T07:38:44.624Z,1.17
2023-04-12T07:43:46.112Z,1.53
2023-04-12T07:48:47.501Z,1.70
2023-04-12T07:53:48.908Z,1.47
2023-04-12T07:58:50.360Z,1.30
2023-04-12T08:03:51.888Z,1.20
2023-04-12T08:08:53.344Z,1.20
2023-04-12T08:13:54.870Z,1.10
2023-04-12T08:18:56.378Z,1.20
2023-04-12T08:23:57.938Z,1.30
2023-04-12T08:28:59.528Z,1.27
2023-04-12T08:34:01.086Z,1.00
2023-04-12T08:39:02.512Z,1.57
2023-04-12T08:44:03.938Z,1.20
2023-04-12T08:49:05.338Z,1.30
2023-04-12T08:54:06.789Z,1.10
2023-04-12T08:59:08.232Z,1.40
2023-04-12T09:04:10.776Z,1.30
2023-04-12T09:09:12.357Z,2.20
2023-04-12T09:14:13.885Z,1.00
2023-04-12T09:19:15.333Z,1.10
2023-04-12T09:24:16.732Z,1.93
2023-04-12T09:29:18.124Z,1.30
2023-04-12T09:34:19.520Z,1.20
2023-04-12T09:39:20.934Z,1.20
2023-04-12T09:44:22.362Z,1.20
2023-04-12T09:49:23.740Z,1.40
2023-04-12T09:54:25.133Z,4.10
2023-04-12T09:59:26.671Z,1.20
2023-04-12T10:04:28.489Z,1.27
2023-04-12T10:09:30.070Z,1.60
2023-04-12T10:14:31.470Z,1.63
2023-04-12T10:19:32.900Z,1.93
2023-04-12T10:24:34.326Z,1.30
2023-04-12T10:29:35.728Z,1.10
2023-04-12T10:34:37.145Z,1.10
2023-04-12T10:39:38.547Z,1.23
2023-04-12T10:44:39.934Z,1.30
2023-04-12T10:49:44.239Z,1.20
2023-04-12T10:54:45.746Z,1.33
2023-04-12T10:59:47.955Z,1.40
2023-04-12T11:04:49.585Z,1.43
2023-04-12T11:09:51.075Z,4.80
2023-04-12T11:14:52.519Z,2.40
2023-04-12T11:19:53.910Z,3.53
2023-04-12T11:24:55.374Z,2.20
2023-04-12T11:29:56.799Z,3.00
2023-04-12T11:34:58.209Z,1.43
2023-04-12T11:39:59.615Z,1.83
2023-04-12T11:45:06.504Z,1.50
2023-04-12T11:50:10.892Z,2.37
2023-04-12T11:55:12.320Z,4.00
2023-04-12T12:00:13.743Z,1.40
2023-04-12T12:05:15.381Z,2.70
2023-04-12T12:10:32.578Z,3.37
2023-04-12T12:15:38.564Z,4.13
2023-04-12T12:20:40.000Z,4.03
2023-04-12T12:25:41.433Z,5.23
2023-04-12T12:30:42.861Z,4.03
2023-04-12T12:35:44.317Z,4.50
2023-04-12T12:40:45.746Z,2.47
2023-04-12T12:45:47.141Z,5.67
2023-04-12T12:50:48.542Z,4.73
2023-04-12T12:55:49.960Z,4.40
2023-04-12T13:00:51.370Z,4.70
2023-04-12T13:05:52.770Z,3.20
2023-04-12T13:10:54.186Z,3.07
2023-04-12T13:15:55.650Z,5.33
2023-04-12T13:20:57.077Z,2.90
2023-04-12T13:25:58.478Z,5.07
2023-04-12T13:30:59.891Z,5.00
2023-04-12T13:36:01.324Z,6.43
2023-04-12T13:41:02.749Z,3.23
2023-04-12T13:46:04.196Z,4.13
2023-04-12T13:51:05.670Z,5.20
2023-04-12T13:56:07.090Z,5.20
2023-04-12T14:01:08.656Z,7.23
2023-04-12T14:06:10.098Z,4.50
2023-04-12T14:11:11.520Z,8.67
2023-04-12T14:16:12.964Z,4.77
2023-04-12T14:21:14.369Z,8.70
2023-04-12T14:26:15.777Z,5.37
2023-04-12T14:31:17.295Z,5.40
2023-04-12T14:36:18.797Z,4.10
2023-04-12T14:41:20.191Z,7.30
2023-04-12T14:46:21.617Z,5.23
2023-04-12T14:51:23.033Z,6.40
2023-04-12T14:56:25.224Z,8.67
2023-04-12T15:01:27.764Z,4.07
2023-04-12T15:06:29.207Z,6.20
2023-04-12T15:11:30.597Z,4.67
2023-04-12T15:16:32.075Z,3.77
2023-04-12T15:21:33.479Z,3.40
2023-04-12T15:26:34.875Z,3.40
2023-04-12T15:31:36.348Z,4.60
2023-04-12T15:36:37.913Z,6.50
2023-04-12T15:41:39.413Z,3.80
2023-04-12T15:46:40.819Z,4.33
2023-04-12T15:51:42.264Z,4.80
2023-04-12T15:56:43.668Z,4.40
2023-04-12T16:01:45.179Z,4.53
2023-04-12T16:06:46.648Z,6.27
2023-04-12T16:11:48.089Z,3.10
2023-04-12T16:16:49.498Z,3.53
2023-04-12T16:21:50.919Z,4.83
2023-04-12T16:26:52.331Z,4.03
2023-04-12T16:31:53.818Z,4.10
2023-04-12T16:36:55.251Z,3.50
2023-04-12T16:41:56.705Z,2.70
2023-04-12T16:46:58.115Z,2.17
2023-04-12T16:51:59.546Z,9.30
2023-04-12T16:57:00.944Z,2.53
2023-04-12T17:02:02.390Z,4.70
2023-04-12T17:07:03.806Z,2.03
2023-04-12T17:12:05.203Z,6.20
2023-04-12T17:17:07.026Z,4.30
2023-04-12T17:22:08.627Z,2.97
2023-04-12T17:27:10.026Z,4.43
2023-04-12T17:32:11.524Z,4.80
2023-04-12T17:37:12.918Z,6.13
2023-04-12T17:42:14.327Z,7.67
2023-04-12T17:47:15.738Z,7.07
2023-04-12T17:52:17.137Z,7.67
2023-04-12T17:57:18.537Z,5.00
2023-04-12T18:02:20.128Z,8.20
2023-04-12T18:07:21.714Z,12.73
2023-04-12T18:12:23.137Z,9.75
2023-04-12T18:17:26.408Z,10.82
2023-04-12T18:22:28.310Z,8.45
2023-04-12T18:27:29.747Z,12.90
2023-04-12T18:32:31.420Z,8.65
2023-04-12T18:37:32.932Z,8.70
2023-04-12T18:42:34.380Z,7.77
2023-04-12T18:47:35.886Z,7.90
2023-04-12T18:52:37.356Z,7.30
2023-04-12T18:57:38.835Z,11.33
2023-04-12T19:02:40.430Z,7.07
2023-04-12T19:07:41.908Z,7.20
2023-04-12T19:12:43.335Z,6.23
2023-04-12T19:17:44.775Z,5.87
2023-04-12T19:22:46.228Z,9.60
2023-04-12T19:27:47.644Z,7.93
2023-04-12T19:32:49.216Z,9.70
2023-04-12T19:37:50.694Z,5.83
2023-04-12T19:42:52.145Z,6.43
2023-04-12T19:47:53.701Z,8.70
2023-04-12T19:52:55.200Z,6.13
2023-04-12T19:57:56.640Z,8.57
2023-04-12T20:02:58.096Z,6.00
2023-04-12T20:07:59.533Z,3.90
2023-04-12T20:13:00.922Z,7.07
2023-04-12T20:18:02.366Z,6.90
2023-04-12T20:23:03.840Z,6.00
2023-04-12T20:28:05.239Z,6.57
2023-04-12T20:33:06.753Z,6.90
2023-04-12T20:38:08.188Z,7.50
2023-04-12T20:43:09.580Z,8.30
2023-04-12T20:48:11.049Z,6.40
2023-04-12T20:53:12.482Z,7.23
2023-04-12T20:58:13.999Z,6.67
2023-04-12T21:03:15.478Z,4.20
2023-04-12T21:08:16.961Z,7.70
2023-04-12T21:13:18.364Z,6.63
2023-04-12T21:18:19.805Z,7.77
2023-04-12T21:23:21.199Z,4.03
2023-04-12T21:28:22.578Z,3.50
2023-04-12T21:33:24.001Z,4.23
2023-04-12T21:38:25.404Z,3.13
2023-04-12T21:43:26.810Z,5.30
2023-04-12T21:48:28.216Z,4.70
2023-04-12T21:53:29.617Z,8.43
2023-04-12T21:58:31.009Z,3.57
2023-04-12T22:03:32.533Z,6.80
2023-04-12T22:08:34.064Z,7.43
2023-04-12T22:13:35.535Z,7.50
2023-04-12T22:18:36.974Z,5.00
2023-04-12T22:23:38.410Z,6.30
2023-04-12T22:28:39.803Z,5.70
2023-04-12T22:33:41.289Z,8.13
2023-04-12T22:38:42.700Z,7.27
2023-04-12T22:43:44.098Z,6.77
2023-04-12T22:48:45.560Z,7.47
2023-04-12T22:53:47.038Z,5.30
2023-04-12T22:58:48.472Z,7.17
2023-04-12T23:03:49.883Z,5.00
2023-04-12T23:08:51.303Z,4.17
2023-04-12T23:13:52.701Z,4.47
2023-04-12T23:18:54.089Z,6.33
2023-04-12T23:23:55.638Z,5.20
2023-04-12T23:28:57.118Z,4.13
2023-04-12T23:33:58.764Z,8.63
2023-04-12T23:39:00.394Z,5.40
2023-04-12T23:44:02.179Z,4.57
2023-04-12T23:49:03.649Z,5.33
2023-04-12T23:54:05.068Z,7.60
2023-04-12T23:59:06.483Z,4.80
